Time;durP1;ratioP1;P1;durP2;ratioP2;P2;SDS_P1;SDS_P2;PMS_P1;PMS_P2;Temp;Humidity;BMP_temperature;BMP_pressure;BME280_temperature;BME280_humidity;BME280_pressure;Samples;Min_cycle;Max_cycle;Signal;HPM_P1;HPM_P2
2023/01/07 00:05:53;;;;;;;8.45;4.63;;;;;;;;;;5981658;23;20028;-91
2023/01/07 00:09:18;;;;;;;10.15;5.22;;;;;;;;;;5944541;24;20030;-92
2023/01/07 00:12:43;;;;;;;8.48;4.65;;;;;;;;;;5964104;23;20446;-92
2023/01/07 00:16:37;;;;;;;9.25;5.30;;;;;;;;;;5981948;24;20020;-92
2023/01/07 00:19:49;;;;;;;11.35;5.68;;;;;;;;;;5981343;24;20098;-92
2023/01/07 00:23:25;;;;;;;10.05;4.55;;;;;;;;;;6043951;23;20058;-91
2023/01/07 00:26:12;;;;;;;9.70;4.93;;;;;;;;;;6066703;23;20007;-91
2023/01/07 00:28:59;;;;;;;8.38;4.47;;;;;;;;;;6028208;23;20391;-91
2023/01/07 00:31:45;;;;;;;7.50;4.40;;;;;;;;;;6019054;23;20074;-90
2023/01/07 00:34:31;;;;;;;7.45;4.55;;;;;;;;;;6020106;23;20011;-91
2023/01/07 00:40:35;;;;;;;8.73;4.38;;;;;;;;;;6037171;23;20011;-90
2023/01/07 00:43:27;;;;;;;8.57;4.15;;;;;;;;;;6020552;23;20098;-91
2023/01/07 00:46:16;;;;;;;10.50;5.17;;;;;;;;;;6017993;23;20030;-91
2023/01/07 00:49:02;;;;;;;8.65;4.60;;;;;;;;;;6037546;23;20007;-92
2023/01/07 00:51:50;;;;;;;9.35;4.60;;;;;;;;;;6020189;23;20026;-92
2023/01/07 00:54:39;;;;;;;6.32;3.55;;;;;;;;;;6018675;23;20011;-92
2023/01/07 00:57:33;;;;;;;7.68;4.22;;;;;;;;;;6020510;23;20011;-92
2023/01/07 01:00:20;;;;;;;8.35;4.30;;;;;;;;;;6021081;23;20499;-91
2023/01/07 01:03:12;;;;;;;7.13;4.28;;;;;;;;;;6020253;23;20015;-92
2023/01/07 01:06:08;;;;;;;7.32;4.35;;;;;;;;;;6018652;23;20007;-92
2023/01/07 01:09:01;;;;;;;6.88;3.67;;;;;;;;;;6035952;23;20050;-91
2023/01/07 01:11:53;;;;;;;7.70;4.18;;;;;;;;;;6017441;23;20015;-92
2023/01/07 01:14:48;;;;;;;7.53;3.67;;;;;;;;;;6020302;23;20011;-92
2023/01/07 01:17:36;;;;;;;6.65;3.53;;;;;;;;;;6018434;23;20011;-91
2023/01/07 01:20:25;;;;;;;6.10;3.53;;;;;;;;;;6020379;23;20037;-91
2023/01/07 01:23:14;;;;;;;5.97;3.60;;;;;;;;;;6019975;23;20067;-92
2023/01/07 01:26:09;;;;;;;7.07;3.33;;;;;;;;;;6037643;23;20011;-91
2023/01/07 01:28:57;;;;;;;4.68;2.50;;;;;;;;;;6018274;23;20011;-92
2023/01/07 01:31:53;;;;;;;6.05;3.80;;;;;;;;;;6036518;23;20020;-92
2023/01/07 01:34:45;;;;;;;5.28;3.15;;;;;;;;;;6019615;23;20011;-92
2023/01/07 01:37:33;;;;;;;5.65;3.25;;;;;;;;;;6038533;23;20078;-92
2023/01/07 01:40:19;;;;;;;6.68;3.22;;;;;;;;;;6019888;23;20007;-92
2023/01/07 01:43:24;;;;;;;6.68;3.17;;;;;;;;;;6019916;23;20011;-91
2023/01/07 01:46:30;;;;;;;6.25;3.15;;;;;;;;;;6037909;23;20014;-91
2023/01/07 01:49:32;;;;;;;6.45;3.13;;;;;;;;;;6038208;23;20015;-92
2023/01/07 01:52:50;;;;;;;5.57;3.40;;;;;;;;;;6017654;23;20038;-91
2023/01/07 01:55:42;;;;;;;4.82;2.90;;;;;;;;;;6016704;23;20098;-92
2023/01/07 01:58:44;;;;;;;6.60;3.75;;;;;;;;;;6019759;23;20440;-92
2023/01/07 02:01:34;;;;;;;5.28;2.97;;;;;;;;;;6019476;23;20046;-91
2023/01/07 02:04:25;;;;;;;6.55;2.97;;;;;;;;;;6019605;23;20459;-92
2023/01/07 02:07:17;;;;;;;6.22;2.67;;;;;;;;;;6018183;23;20011;-91
2023/01/07 02:10:18;;;;;;;5.72;2.60;;;;;;;;;;6020098;23;20011;-91
2023/01/07 02:13:19;;;;;;;5.28;2.75;;;;;;;;;;6019366;23;20015;-90
2023/01/07 02:16:28;;;;;;;4.28;2.55;;;;;;;;;;6037650;23;20016;-92
2023/01/07 02:19:40;;;;;;;5.18;2.67;;;;;;;;;;6036696;23;20011;-91
2023/01/07 02:23:08;;;;;;;5.53;2.00;;;;;;;;;;6036442;23;20024;-91
2023/01/07 02:26:31;;;;;;;4.55;2.42;;;;;;;;;;6038352;23;20083;-92
2023/01/07 02:29:49;;;;;;;5.53;2.75;;;;;;;;;;6037545;23;20139;-92
2023/01/07 02:33:00;;;;;;;4.97;2.53;;;;;;;;;;6037272;23;20011;-91
2023/01/07 02:35:56;;;;;;;4.95;2.40;;;;;;;;;;6037439;23;20059;-92
2023/01/07 02:39:08;;;;;;;6.35;2.72;;;;;;;;;;6037572;23;20016;-91
2023/01/07 02:42:22;;;;;;;5.80;2.53;;;;;;;;;;6022841;23;20444;-92
2023/01/07 02:45:29;;;;;;;5.28;2.15;;;;;;;;;;6016736;23;20058;-93
2023/01/07 02:48:21;;;;;;;4.82;2.35;;;;;;;;;;6035580;23;20011;-91
2023/01/07 02:51:15;;;;;;;4.63;2.15;;;;;;;;;;6019609;23;20011;-90
2023/01/07 02:54:07;;;;;;;4.20;2.03;;;;;;;;;;6017694;23;20031;-90
2023/01/07 02:57:03;;;;;;;4.13;2.13;;;;;;;;;;6036330;23;20015;-90
2023/01/07 03:00:13;;;;;;;4.65;1.92;;;;;;;;;;6037360;23;20463;-90
2023/01/07 03:03:20;;;;;;;4.07;1.98;;;;;;;;;;6037322;23;20003;-91
2023/01/07 03:06:36;;;;;;;3.90;1.92;;;;;;;;;;6036904;23;20011;-90
2023/01/07 03:09:48;;;;;;;3.78;1.80;;;;;;;;;;6058365;23;20007;-91
2023/01/07 03:12:46;;;;;;;4.22;1.85;;;;;;;;;;6038343;23;20021;-90
2023/01/07 03:15:40;;;;;;;3.70;1.83;;;;;;;;;;6020422;23;20015;-90
2023/01/07 03:18:34;;;;;;;2.47;1.30;;;;;;;;;;6017690;23;20011;-90
2023/01/07 03:21:21;;;;;;;4.85;1.83;;;;;;;;;;6018179;23;20011;-90
2023/01/07 03:24:12;;;;;;;3.97;1.67;;;;;;;;;;6017060;23;20042;-91
2023/01/07 03:27:01;;;;;;;3.35;1.85;;;;;;;;;;6020066;23;20018;-90
2023/01/07 03:29:50;;;;;;;3.60;1.95;;;;;;;;;;6019653;23;20043;-90
2023/01/07 03:32:57;;;;;;;4.30;1.88;;;;;;;;;;6019132;23;20011;-91
2023/01/07 03:35:48;;;;;;;2.97;1.60;;;;;;;;;;6019215;23;20060;-90
2023/01/07 03:38:37;;;;;;;3.13;1.58;;;;;;;;;;6018182;23;20011;-92
2023/01/07 03:44:29;;;;;;;3.70;1.95;;;;;;;;;;6035496;23;20011;-91
2023/01/07 03:47:22;;;;;;;3.70;1.38;;;;;;;;;;6017223;23;20014;-92
2023/01/07 03:50:14;;;;;;;2.42;1.30;;;;;;;;;;6016341;23;20010;-92
2023/01/07 03:53:03;;;;;;;3.17;1.33;;;;;;;;;;6016966;23;20103;-89
2023/01/07 03:55:55;;;;;;;3.00;1.40;;;;;;;;;;6019152;23;20444;-90
2023/01/07 03:58:43;;;;;;;3.47;1.60;;;;;;;;;;6018966;23;20009;-90
2023/01/07 04:01:32;;;;;;;3.92;1.60;;;;;;;;;;6019007;23;20018;-89
2023/01/07 04:04:23;;;;;;;2.55;1.33;;;;;;;;;;6035803;23;20352;-89
2023/01/07 04:07:29;;;;;;;2.90;1.40;;;;;;;;;;6036169;23;20018;-89
2023/01/07 04:10:21;;;;;;;3.28;1.40;;;;;;;;;;6018559;23;20030;-90
2023/01/07 04:13:10;;;;;;;2.47;1.33;;;;;;;;;;6016176;23;20018;-89
2023/01/07 04:15:59;;;;;;;2.78;1.20;;;;;;;;;;6018613;23;20107;-90
2023/01/07 04:18:46;;;;;;;3.15;1.30;;;;;;;;;;6018928;23;20063;-90
2023/01/07 04:21:32;;;;;;;2.38;1.25;;;;;;;;;;6017263;23;20011;-92
2023/01/07 04:24:24;;;;;;;3.10;1.23;;;;;;;;;;5989542;23;20015;-90
2023/01/07 04:27:23;;;;;;;2.90;1.40;;;;;;;;;;5988590;23;20007;-89
2023/01/07 04:30:12;;;;;;;3.03;1.45;;;;;;;;;;5992309;23;20008;-89
2023/01/07 04:33:06;;;;;;;2.90;0.90;;;;;;;;;;6007862;23;20393;-90
2023/01/07 04:35:58;;;;;;;2.65;1.15;;;;;;;;;;5991781;23;20011;-88
2023/01/07 04:38:46;;;;;;;2.45;1.05;;;;;;;;;;5990371;23;20023;-92
2023/01/07 04:41:38;;;;;;;2.85;1.30;;;;;;;;;;5991622;23;20011;-91
2023/01/07 04:44:32;;;;;;;2.50;1.10;;;;;;;;;;5991392;23;20016;-91
2023/01/07 04:47:26;;;;;;;3.13;1.20;;;;;;;;;;5990790;23;20011;-90
2023/01/07 04:50:17;;;;;;;3.08;1.13;;;;;;;;;;6010159;23;20354;-91
2023/01/07 04:53:09;;;;;;;3.55;1.58;;;;;;;;;;5990710;23;20015;-92
2023/01/07 04:55:59;;;;;;;2.90;1.20;;;;;;;;;;6008434;23;20075;-92
2023/01/07 04:58:59;;;;;;;2.00;1.00;;;;;;;;;;5990554;23;20054;-91
2023/01/07 05:01:55;;;;;;;2.42;0.90;;;;;;;;;;5992502;23;20008;-91
2023/01/07 05:04:44;;;;;;;2.25;1.08;;;;;;;;;;5990935;23;20437;-91
2023/01/07 05:07:39;;;;;;;2.42;0.75;;;;;;;;;;5990649;23;20016;-91
2023/01/07 05:10:34;;;;;;;1.95;0.93;;;;;;;;;;5989351;23;20023;-92
2023/01/07 05:13:26;;;;;;;2.90;1.20;;;;;;;;;;5992524;23;20401;-92
2023/01/07 05:16:18;;;;;;;2.83;1.13;;;;;;;;;;5990521;23;20022;-91
2023/01/07 05:19:07;;;;;;;4.83;1.00;;;;;;;;;;5991253;23;20237;-92
2023/01/07 05:21:56;;;;;;;2.63;1.20;;;;;;;;;;6000357;23;20050;-89
2023/01/07 05:24:45;;;;;;;2.15;0.85;;;;;;;;;;6026982;23;20026;-90
2023/01/07 05:27:44;;;;;;;2.00;0.80;;;;;;;;;;6028849;23;20380;-89
2023/01/07 05:30:38;;;;;;;2.38;1.10;;;;;;;;;;6046775;23;20094;-89
2023/01/07 05:33:27;;;;;;;1.95;0.80;;;;;;;;;;6027479;23;20396;-92
2023/01/07 05:36:16;;;;;;;2.65;0.85;;;;;;;;;;6065954;23;20086;-92
2023/01/07 05:39:11;;;;;;;2.50;0.77;;;;;;;;;;6026697;23;20018;-91
2023/01/07 05:42:11;;;;;;;1.50;0.88;;;;;;;;;;6028364;23;20018;-92
2023/01/07 05:45:01;;;;;;;2.80;1.10;;;;;;;;;;6028774;23;20015;-92
2023/01/07 05:47:50;;;;;;;2.10;0.90;;;;;;;;;;6027833;23;20074;-91
2023/01/07 05:50:42;;;;;;;1.80;0.80;;;;;;;;;;6026182;23;20011;-91
2023/01/07 05:53:34;;;;;;;2.28;0.95;;;;;;;;;;6045694;23;20011;-92
2023/01/07 05:56:23;;;;;;;1.60;0.85;;;;;;;;;;6027014;23;20138;-91
2023/01/07 05:59:12;;;;;;;2.00;0.70;;;;;;;;;;6027724;23;20010;-92
2023/01/07 06:02:03;;;;;;;1.92;0.70;;;;;;;;;;6026466;23;20002;-91
2023/01/07 06:04:55;;;;;;;1.70;0.65;;;;;;;;;;6046411;23;20007;-92
2023/01/07 06:07:50;;;;;;;1.38;0.70;;;;;;;;;;6027792;23;20085;-91
2023/01/07 06:10:39;;;;;;;1.60;0.60;;;;;;;;;;6026353;23;20440;-91
2023/01/07 06:13:25;;;;;;;1.08;0.52;;;;;;;;;;6027420;23;20018;-91
2023/01/07 06:16:14;;;;;;;2.28;0.90;;;;;;;;;;6026373;23;20011;-91
2023/01/07 06:19:05;;;;;;;1.95;0.80;;;;;;;;;;6025162;23;20011;-91
2023/01/07 06:22:05;;;;;;;1.90;0.73;;;;;;;;;;6025387;23;20011;-92
2023/01/07 06:24:57;;;;;;;1.88;0.90;;;;;;;;;;6026317;23;20011;-92
2023/01/07 06:27:45;;;;;;;1.38;0.60;;;;;;;;;;6027380;23;20017;-91
2023/01/07 06:30:34;;;;;;;1.58;1.02;;;;;;;;;;6025847;23;20074;-92
2023/01/07 06:33:23;;;;;;;1.35;0.70;;;;;;;;;;6025187;23;20074;-91
2023/01/07 06:36:11;;;;;;;1.42;0.55;;;;;;;;;;6045891;23;20013;-91
2023/01/07 06:38:58;;;;;;;2.10;0.77;;;;;;;;;;6027718;23;20036;-92
2023/01/07 06:41:45;;;;;;;1.52;0.60;;;;;;;;;;6028063;23;20015;-91
2023/01/07 06:44:33;;;;;;;1.77;0.95;;;;;;;;;;6045207;23;20017;-92
2023/01/07 06:47:21;;;;;;;1.50;0.70;;;;;;;;;;6026465;23;20062;-91
2023/01/07 06:50:08;;;;;;;2.03;0.80;;;;;;;;;;6024954;23;20011;-91
2023/01/07 06:52:57;;;;;;;3.30;0.80;;;;;;;;;;6044553;23;20026;-91
2023/01/07 06:55:54;;;;;;;0.98;0.47;;;;;;;;;;6028149;23;20006;-92
2023/01/07 06:58:49;;;;;;;1.63;0.70;;;;;;;;;;6027784;23;20018;-92
2023/01/07 07:01:35;;;;;;;1.48;0.50;;;;;;;;;;6025969;23;20034;-91
2023/01/07 07:04:26;;;;;;;1.88;0.52;;;;;;;;;;6024796;23;20093;-92
2023/01/07 07:07:15;;;;;;;3.13;0.82;;;;;;;;;;6026530;23;20018;-92
2023/01/07 07:10:07;;;;;;;1.40;0.55;;;;;;;;;;6046333;23;20011;-92
2023/01/07 07:13:07;;;;;;;1.23;0.50;;;;;;;;;;6045639;23;20042;-90
2023/01/07 07:15:55;;;;;;;1.73;0.85;;;;;;;;;;6029560;23;20352;-90
2023/01/07 07:18:46;;;;;;;0.98;0.43;;;;;;;;;;6026914;23;20090;-91
2023/01/07 07:21:35;;;;;;;1.48;0.43;;;;;;;;;;6025990;23;20019;-89
2023/01/07 07:24:24;;;;;;;1.70;0.60;;;;;;;;;;6027794;23;20070;-90
2023/01/07 07:27:16;;;;;;;0.98;0.40;;;;;;;;;;6027623;23;20436;-90
2023/01/07 07:30:06;;;;;;;1.73;0.90;;;;;;;;;;6028184;23;20019;-88
2023/01/07 07:32:56;;;;;;;1.92;0.60;;;;;;;;;;6025343;23;20022;-90
2023/01/07 07:35:49;;;;;;;2.15;0.82;;;;;;;;;;6025120;23;20010;-90
2023/01/07 07:38:40;;;;;;;1.35;0.50;;;;;;;;;;6025502;23;20343;-91
2023/01/07 07:41:42;;;;;;;1.67;0.70;;;;;;;;;;6027687;23;20010;-91
2023/01/07 07:44:40;;;;;;;0.85;0.50;;;;;;;;;;6026266;23;20439;-91
2023/01/07 07:47:29;;;;;;;1.77;0.60;;;;;;;;;;6027556;23;20017;-93
2023/01/07 07:50:18;;;;;;;0.93;0.35;;;;;;;;;;6027467;23;20019;-90
2023/01/07 07:53:10;;;;;;;1.42;0.60;;;;;;;;;;6046816;23;20427;-92
2023/01/07 07:55:59;;;;;;;1.70;0.70;;;;;;;;;;6027373;23;20015;-90
2023/01/07 07:58:50;;;;;;;1.35;0.47;;;;;;;;;;6025387;23;20010;-91
2023/01/07 08:02:15;;;;;;;2.20;0.67;;;;;;;;;;6025918;23;20018;-91
2023/01/07 08:05:47;;;;;;;2.15;0.60;;;;;;;;;;6046326;23;20468;-91
2023/01/07 08:09:10;;;;;;;2.65;0.63;;;;;;;;;;5951432;23;20095;-91
2023/01/07 08:12:04;;;;;;;2.75;0.75;;;;;;;;;;5992049;23;20042;-91
2023/01/07 08:18:21;;;;;;;2.93;0.63;;;;;;;;;;6009055;23;19902;-91
2023/01/07 08:21:18;;;;;;;4.72;0.93;;;;;;;;;;5973622;23;20031;-90
2023/01/07 08:24:07;;;;;;;3.90;1.30;;;;;;;;;;5973229;23;20024;-92
2023/01/07 08:27:47;;;;;;;;;;;;;;;;;;;;;
2023/01/07 08:30:57;;;;;;;3.97;0.73;;;;;;;;;;6008574;23;20105;-91
2023/01/07 08:34:30;;;;;;;6.75;1.40;;;;;;;;;;5970071;23;20820;-90
2023/01/07 08:37:21;;;;;;;4.70;1.30;;;;;;;;;;5990416;23;20020;-90
2023/01/07 08:41:04;;;;;;;4.55;1.25;;;;;;;;;;6022554;23;20022;-90
2023/01/07 09:01:30;;;;;;;1.80;1.00;;;;;;;;;;6067086;23;20015;-89
2023/01/07 09:04:23;;;;;;;2.35;1.02;;;;;;;;;;6027329;23;20026;-89
2023/01/07 09:07:13;;;;;;;2.28;0.80;;;;;;;;;;6026620;23;20021;-89
2023/01/07 17:43:54;;;;;;;10.35;6.78;;;;;;;;;;6091752;23;20026;-90
2023/01/07 17:54:05;;;;;;;;;;;;;;;;;;6093106;23;20402;-92
2023/01/07 17:56:59;;;;;;;16.45;12.15;;;;;;;;;;5984740;23;20282;-91
2023/01/07 18:03:31;;;;;;;11.25;7.60;;;;;;;;;;6012675;23;20441;-92
2023/01/07 18:16:18;;;;;;;14.13;9.43;;;;;;;;;;6065127;23;20025;-92
2023/01/07 18:18:55;;;;;;;15.73;10.80;;;;;;;;;;6018943;23;20355;-92
2023/01/07 18:22:04;;;;;;;14.38;11.15;;;;;;;;;;6007648;23;20051;-94
2023/01/07 18:24:35;;;;;;;13.55;10.70;;;;;;;;;;5938428;23;20007;-92
2023/01/07 18:31:55;;;;;;;17.55;10.23;;;;;;;;;;5923704;24;20473;-91
2023/01/07 19:50:07;;;;;;;;;;;;;;;;;;;;;
2023/01/07 19:53:03;;;;;;;195.05;125.80;;;;;;;;;;5922622;24;20028;-91
2023/01/07 19:55:36;;;;;;;199.38;133.48;;;;;;;;;;5938683;24;20022;-90
2023/01/07 20:04:00;;;;;;;165.77;117.43;;;;;;;;;;6092415;23;20304;-91
2023/01/07 21:37:54;;;;;;;62.97;49.08;;;;;;;;;;6043128;23;20395;-92
2023/01/07 21:40:32;;;;;;;70.55;47.85;;;;;;;;;;5974422;23;20011;-90
2023/01/07 21:43:57;;;;;;;70.00;47.30;;;;;;;;;;6019473;23;20038;-93
2023/01/07 21:47:54;;;;;;;66.30;46.05;;;;;;;;;;6055030;23;20018;-92
2023/01/07 22:45:01;;;;;;;37.58;28.05;;;;;;;;;;6039406;23;20459;-93
2023/01/07 22:48:07;;;;;;;42.22;28.80;;;;;;;;;;6012449;23;20389;-92
2023/01/07 22:55:13;;;;;;;32.40;24.85;;;;;;;;;;6035912;23;20019;-91
2023/01/07 22:58:50;;;;;;;35.27;24.63;;;;;;;;;;6045538;23;20039;-91
2023/01/07 23:02:22;;;;;;;33.25;24.52;;;;;;;;;;5979105;23;20238;-92
2023/01/07 23:06:08;;;;;;;30.48;22.70;;;;;;;;;;6009195;23;20015;-92
2023/01/07 23:09:22;;;;;;;31.45;23.13;;;;;;;;;;6068436;23;20388;-92
2023/01/07 23:12:49;;;;;;;34.83;24.67;;;;;;;;;;6027835;23;20011;-92
2023/01/07 23:15:30;;;;;;;31.73;22.42;;;;;;;;;;6005084;23;20011;-90
2023/01/07 23:18:32;;;;;;;33.05;21.25;;;;;;;;;;6046835;23;20039;-91
2023/01/07 23:21:21;;;;;;;28.00;21.20;;;;;;;;;;6001311;23;20019;-92
2023/01/07 23:24:50;;;;;;;28.65;20.95;;;;;;;;;;5999340;23;20011;-91
2023/01/07 23:28:26;;;;;;;29.98;21.27;;;;;;;;;;6015400;23;20070;-92
2023/01/07 23:34:28;;;;;;;27.83;18.65;;;;;;;;;;6087330;23;20033;-91
